Time;durP1;ratioP1;P1;durP2;ratioP2;P2;SDS_P1;SDS_P2;PMS_P1;PMS_P2;Temp;Humidity;BMP_temperature;BMP_pressure;BME280_temperature;BME280_humidity;BME280_pressure;Samples;Min_cycle;Max_cycle;Signal;HPM_P1;HPM_P2
2023/10/24 00:01:11;;;;;;;2.50;2.28;;;13.40;99.90;;;;;;5040700;28;20057;-43
2023/10/24 00:03:36;;;;;;;2.95;2.30;;;13.40;99.90;;;;;;5041857;28;20172;-43
2023/10/24 00:06:05;;;;;;;3.13;2.65;;;13.40;99.90;;;;;;5039863;28;20162;-43
2023/10/24 00:08:30;;;;;;;2.97;2.65;;;13.40;99.90;;;;;;5041304;28;20021;-43
2023/10/24 00:11:03;;;;;;;5.32;2.83;;;13.40;99.90;;;;;;5041662;28;20119;-43
2023/10/24 00:13:29;;;;;;;3.13;2.42;;;13.40;99.90;;;;;;5040690;28;20060;-43
2023/10/24 00:15:54;;;;;;;2.53;2.33;;;13.40;99.90;;;;;;5041511;28;20048;-43
2023/10/24 00:18:20;;;;;;;3.03;2.30;;;13.40;99.90;;;;;;5040212;28;20028;-42
2023/10/24 00:20:46;;;;;;;3.72;3.10;;;13.40;99.90;;;;;;5039799;28;20065;-43
2023/10/24 00:23:14;;;;;;;3.65;2.70;;;13.40;99.90;;;;;;5040530;28;20025;-43
2023/10/24 00:25:40;;;;;;;4.00;2.28;;;13.40;99.90;;;;;;5040494;28;20746;-44
2023/10/24 00:28:05;;;;;;;3.05;2.53;;;13.40;99.90;;;;;;5039239;28;20140;-41
2023/10/24 00:30:31;;;;;;;2.33;2.13;;;13.40;99.90;;;;;;5040511;28;20032;-43
2023/10/24 00:32:56;;;;;;;4.47;2.90;;;13.40;99.90;;;;;;5040571;28;20056;-43
2023/10/24 00:35:22;;;;;;;3.15;2.60;;;13.40;99.90;;;;;;5040439;28;20025;-42
2023/10/24 00:37:51;;;;;;;5.45;2.55;;;13.40;99.90;;;;;;5040710;28;20753;-42
2023/10/24 00:40:19;;;;;;;3.35;2.70;;;13.50;99.90;;;;;;5040511;28;20943;-42
2023/10/24 00:42:45;;;;;;;2.63;2.30;;;13.40;99.90;;;;;;5039470;28;20024;-41
2023/10/24 00:45:11;;;;;;;2.30;2.10;;;13.40;99.90;;;;;;5040183;28;20029;-42
2023/10/24 00:47:38;;;;;;;2.88;2.63;;;13.50;99.90;;;;;;5040132;28;20024;-42
2023/10/24 00:50:05;;;;;;;3.53;2.72;;;13.40;99.90;;;;;;5040373;28;20024;-42
2023/10/24 00:52:37;;;;;;;3.78;2.45;;;13.40;99.90;;;;;;5040789;28;20117;-42
2023/10/24 00:55:05;;;;;;;2.60;2.40;;;13.40;99.90;;;;;;5039788;28;20021;-43
2023/10/24 00:57:31;;;;;;;2.40;2.20;;;13.40;99.90;;;;;;5040866;28;20013;-42
2023/10/24 00:59:56;;;;;;;2.55;2.33;;;13.40;99.90;;;;;;5041214;28;20029;-43
2023/10/24 01:02:22;;;;;;;2.35;2.08;;;13.40;99.90;;;;;;5042453;28;20032;-42
2023/10/24 01:04:53;;;;;;;1.95;1.85;;;13.50;99.90;;;;;;5044674;28;20021;-42
2023/10/24 01:07:19;;;;;;;2.60;2.40;;;13.50;99.90;;;;;;5043119;28;20120;-43
2023/10/24 01:09:44;;;;;;;3.35;2.63;;;13.50;99.90;;;;;;5043116;28;20025;-43
2023/10/24 01:12:10;;;;;;;2.83;2.60;;;13.50;99.90;;;;;;5044377;28;20028;-43
2023/10/24 01:14:35;;;;;;;2.90;2.70;;;13.40;99.90;;;;;;5044141;28;20530;-43
2023/10/24 01:17:12;;;;;;;3.17;2.70;;;13.40;99.90;;;;;;5043352;28;20032;-42
2023/10/24 01:19:38;;;;;;;3.22;2.92;;;13.40;99.90;;;;;;5043697;28;20492;-43
2023/10/24 01:22:04;;;;;;;3.05;2.75;;;13.40;99.90;;;;;;5043731;28;20035;-43
2023/10/24 01:24:30;;;;;;;4.80;3.38;;;13.40;99.90;;;;;;5042901;28;20029;-42
2023/10/24 01:26:59;;;;;;;3.45;3.15;;;13.40;99.90;;;;;;5044131;28;20110;-44
2023/10/24 01:29:25;;;;;;;5.40;3.88;;;13.40;99.90;;;;;;5044186;28;20116;-43
2023/10/24 01:31:51;;;;;;;3.63;3.33;;;13.40;99.90;;;;;;5043113;28;20066;-43
2023/10/24 01:34:16;;;;;;;4.07;3.67;;;13.40;99.90;;;;;;5043100;28;20052;-43
2023/10/24 01:36:42;;;;;;;4.93;3.88;;;13.40;99.90;;;;;;5044271;28;20427;-43
2023/10/24 01:39:07;;;;;;;4.47;4.10;;;13.40;99.90;;;;;;5042639;28;20536;-43
2023/10/24 01:41:34;;;;;;;4.05;3.63;;;13.40;99.90;;;;;;5043882;28;20559;-43
2023/10/24 01:44:00;;;;;;;5.95;3.97;;;13.40;99.90;;;;;;5042423;28;20046;-42
2023/10/24 01:46:25;;;;;;;3.95;3.55;;;13.40;99.90;;;;;;5043396;28;20606;-42
2023/10/24 01:48:54;;;;;;;4.82;3.90;;;13.40;99.90;;;;;;5043835;28;20303;-43
2023/10/24 01:51:20;;;;;;;4.53;4.13;;;13.40;99.90;;;;;;5042487;28;20106;-43
2023/10/24 01:53:46;;;;;;;4.93;4.13;;;13.40;99.90;;;;;;5043707;28;20144;-43
2023/10/24 01:56:12;;;;;;;4.47;4.07;;;13.40;99.90;;;;;;5042788;28;20021;-43
2023/10/24 01:58:38;;;;;;;3.92;3.50;;;13.40;99.90;;;;;;5043156;28;20029;-42
2023/10/24 02:01:05;;;;;;;6.45;3.10;;;13.40;99.90;;;;;;5042023;28;20039;-42
2023/10/24 02:03:33;;;;;;;4.55;3.45;;;13.40;99.90;;;;;;5043681;28;20372;-42
2023/10/24 02:06:00;;;;;;;5.13;3.40;;;13.40;99.90;;;;;;5042663;28;20025;-42
2023/10/24 02:08:25;;;;;;;4.05;3.30;;;13.50;99.90;;;;;;5043157;28;20025;-42
2023/10/24 02:10:51;;;;;;;4.78;3.80;;;13.50;99.90;;;;;;5042600;28;20306;-42
2023/10/24 02:13:17;;;;;;;3.95;3.58;;;13.40;99.90;;;;;;5041288;28;20065;-43
2023/10/24 02:15:43;;;;;;;3.95;3.53;;;13.40;99.90;;;;;;5043257;28;20028;-43
2023/10/24 02:18:09;;;;;;;4.38;3.45;;;13.40;99.90;;;;;;5042722;28;20108;-43
2023/10/24 02:20:34;;;;;;;3.97;3.58;;;13.40;99.90;;;;;;5042079;28;20039;-42
2023/10/24 02:23:00;;;;;;;3.45;3.00;;;13.40;99.90;;;;;;5042577;28;20016;-43
2023/10/24 02:25:25;;;;;;;4.13;2.92;;;13.40;99.90;;;;;;5042121;28;20730;-44
2023/10/24 02:27:52;;;;;;;2.88;2.53;;;13.40;99.90;;;;;;5042346;28;20024;-43
2023/10/24 02:30:18;;;;;;;3.80;2.58;;;13.40;99.90;;;;;;5042717;28;20029;-43
2023/10/24 02:32:43;;;;;;;2.90;2.60;;;13.40;99.90;;;;;;5041965;28;20037;-43
2023/10/24 02:35:09;;;;;;;3.63;2.97;;;13.40;99.90;;;;;;5041790;28;20534;-43
2023/10/24 02:37:36;;;;;;;2.92;2.60;;;13.40;99.90;;;;;;5044761;28;20674;-43
2023/10/24 02:40:01;;;;;;;2.58;2.38;;;13.40;99.90;;;;;;5042532;28;20076;-43
2023/10/24 02:42:27;;;;;;;2.92;2.50;;;13.40;99.90;;;;;;5041295;28;20140;-43
2023/10/24 02:44:52;;;;;;;2.63;2.40;;;13.40;99.90;;;;;;5042714;28;20025;-42
2023/10/24 02:47:18;;;;;;;2.75;2.55;;;13.40;99.90;;;;;;5041423;28;20538;-43
2023/10/24 02:49:43;;;;;;;2.83;2.58;;;13.40;99.90;;;;;;5043089;28;20465;-43
2023/10/24 02:52:09;;;;;;;2.83;2.58;;;13.40;99.90;;;;;;5042094;28;20071;-42
2023/10/24 02:54:34;;;;;;;4.32;2.70;;;13.40;99.90;;;;;;5042306;28;20103;-42
2023/10/24 02:57:00;;;;;;;2.95;2.70;;;13.40;99.90;;;;;;5042190;28;20052;-43
2023/10/24 02:59:26;;;;;;;3.97;3.13;;;13.40;99.90;;;;;;5042266;28;20152;-43
2023/10/24 03:01:54;;;;;;;2.67;2.47;;;13.30;99.90;;;;;;5041856;28;20452;-43
2023/10/24 03:04:19;;;;;;;2.55;2.35;;;13.30;99.90;;;;;;5042622;28;20147;-43
2023/10/24 03:06:48;;;;;;;3.65;2.70;;;13.30;99.90;;;;;;5042627;28;20020;-43
2023/10/24 03:09:13;;;;;;;3.42;2.85;;;13.30;99.90;;;;;;5030930;28;20130;-43
2023/10/24 03:11:39;;;;;;;2.97;2.65;;;13.20;99.90;;;;;;5042775;28;20472;-43
2023/10/24 03:14:04;;;;;;;2.83;2.63;;;13.30;99.90;;;;;;5042467;28;20746;-43
2023/10/24 03:16:30;;;;;;;3.05;2.85;;;13.20;99.90;;;;;;5041660;28;20079;-43
2023/10/24 03:18:56;;;;;;;2.40;2.20;;;13.20;99.90;;;;;;5042228;28;20643;-44
2023/10/24 03:21:22;;;;;;;2.42;2.22;;;13.20;99.90;;;;;;5041963;28;20499;-43
2023/10/24 03:23:47;;;;;;;2.90;2.55;;;13.20;99.90;;;;;;5041604;28;20101;-44
2023/10/24 03:26:13;;;;;;;3.42;3.10;;;13.30;99.90;;;;;;5040676;28;20024;-43
2023/10/24 03:28:39;;;;;;;3.35;3.00;;;13.30;99.90;;;;;;5041575;28;20024;-43
2023/10/24 03:31:06;;;;;;;4.38;3.08;;;13.30;99.90;;;;;;5040413;28;20070;-43
2023/10/24 03:33:32;;;;;;;5.40;3.80;;;13.20;99.90;;;;;;5040964;28;20055;-43
2023/10/24 03:35:58;;;;;;;4.78;3.50;;;13.20;99.90;;;;;;5041808;28;20698;-43
2023/10/24 03:38:25;;;;;;;4.18;3.78;;;13.20;99.90;;;;;;5040252;28;20013;-44
2023/10/24 03:40:51;;;;;;;4.50;4.10;;;13.20;99.90;;;;;;5041651;28;20048;-44
2023/10/24 03:43:17;;;;;;;4.88;3.47;;;13.10;99.90;;;;;;5040882;28;20032;-43
2023/10/24 03:45:43;;;;;;;4.03;3.45;;;13.10;99.90;;;;;;5040327;28;20033;-44
2023/10/24 03:48:09;;;;;;;3.65;3.35;;;13.10;99.90;;;;;;5041335;28;20017;-44
2023/10/24 03:50:38;;;;;;;3.70;3.40;;;13.10;99.90;;;;;;5041038;28;20573;-43
2023/10/24 03:53:04;;;;;;;3.40;3.10;;;13.10;99.90;;;;;;5040938;28;20021;-43
2023/10/24 03:55:31;;;;;;;3.50;3.20;;;13.10;99.90;;;;;;5041073;28;20123;-45
2023/10/24 03:57:56;;;;;;;3.35;3.05;;;13.10;99.90;;;;;;5039971;28;20056;-44
2023/10/24 04:00:22;;;;;;;2.92;2.63;;;13.10;99.90;;;;;;5040388;28;20037;-44
2023/10/24 04:02:52;;;;;;;3.58;3.28;;;13.10;99.90;;;;;;5041481;28;20546;-43
2023/10/24 04:05:17;;;;;;;3.10;2.80;;;13.10;99.90;;;;;;5040031;28;20028;-45
2023/10/24 04:07:43;;;;;;;3.47;3.03;;;13.10;99.90;;;;;;5041546;28;20032;-44
2023/10/24 04:10:09;;;;;;;6.38;3.10;;;13.10;99.90;;;;;;5040237;28;20029;-44
2023/10/24 04:12:34;;;;;;;3.65;2.70;;;13.00;99.90;;;;;;5041179;28;20025;-42
2023/10/24 04:15:00;;;;;;;3.22;2.92;;;13.00;99.90;;;;;;5040328;28;20028;-44
2023/10/24 04:17:26;;;;;;;2.90;2.70;;;13.00;99.90;;;;;;5041222;28;20464;-43
2023/10/24 04:19:54;;;;;;;3.55;2.78;;;13.00;99.90;;;;;;5040368;28;20479;-44
2023/10/24 04:22:20;;;;;;;2.50;2.30;;;13.00;99.90;;;;;;5040145;28;20048;-43
2023/10/24 04:24:46;;;;;;;2.90;2.60;;;13.00;99.90;;;;;;5041464;28;20399;-43
2023/10/24 04:27:12;;;;;;;3.08;2.80;;;13.00;99.90;;;;;;5039909;28;20452;-43
2023/10/24 04:29:38;;;;;;;3.50;3.20;;;13.00;99.90;;;;;;5041212;28;20029;-45
2023/10/24 04:32:04;;;;;;;2.80;2.60;;;13.00;99.90;;;;;;5040597;28;20072;-44
2023/10/24 04:34:29;;;;;;;3.20;2.90;;;13.00;99.90;;;;;;5056726;28;20752;-44
2023/10/24 04:36:58;;;;;;;2.70;2.50;;;13.00;99.90;;;;;;5040386;28;20021;-43
2023/10/24 04:39:23;;;;;;;3.03;2.83;;;13.00;99.90;;;;;;5039942;28;20033;-44
2023/10/24 04:41:50;;;;;;;2.80;2.60;;;13.00;99.90;;;;;;5040227;28;20025;-43
2023/10/24 04:44:15;;;;;;;2.85;2.65;;;12.90;99.90;;;;;;5040062;28;20025;-43
2023/10/24 04:46:41;;;;;;;3.50;3.20;;;12.90;99.90;;;;;;5040019;28;20036;-43
2023/10/24 04:49:07;;;;;;;2.75;2.50;;;12.90;99.90;;;;;;5039877;28;20737;-44
2023/10/24 04:51:32;;;;;;;2.75;2.53;;;12.90;99.90;;;;;;5039797;28;20025;-43
2023/10/24 04:53:58;;;;;;;2.70;2.47;;;12.90;99.90;;;;;;5039215;28;20036;-45
2023/10/24 04:56:24;;;;;;;2.75;2.55;;;13.00;99.90;;;;;;5039895;28;20029;-44
2023/10/24 04:58:50;;;;;;;2.92;2.63;;;12.90;99.90;;;;;;5040004;28;20116;-44
2023/10/24 05:01:16;;;;;;;3.20;2.90;;;12.90;99.90;;;;;;5038996;28;20452;-44
2023/10/24 05:03:42;;;;;;;3.20;2.90;;;13.00;99.90;;;;;;5040704;28;20423;-43
2023/10/24 05:06:08;;;;;;;3.20;2.90;;;12.90;99.90;;;;;;5039444;28;20315;-43
2023/10/24 05:08:34;;;;;;;3.83;3.28;;;12.90;99.90;;;;;;5039654;28;20021;-43
2023/10/24 05:11:03;;;;;;;3.95;3.55;;;12.90;99.90;;;;;;5039970;28;20021;-44
2023/10/24 05:13:28;;;;;;;3.42;3.13;;;12.90;99.90;;;;;;5040364;28;20475;-44
2023/10/24 05:15:54;;;;;;;4.75;3.80;;;12.90;99.90;;;;;;5039942;28;20017;-43
2023/10/24 05:18:20;;;;;;;3.78;3.47;;;12.90;99.90;;;;;;5040604;28;20532;-45
2023/10/24 05:20:46;;;;;;;4.57;4.13;;;12.90;99.90;;;;;;5040276;28;20492;-43
2023/10/24 05:23:12;;;;;;;4.45;3.88;;;12.80;99.90;;;;;;5038964;28;20140;-43
2023/10/24 05:25:40;;;;;;;3.95;3.63;;;12.80;99.90;;;;;;5040303;28;20050;-43
2023/10/24 05:28:06;;;;;;;4.50;3.92;;;12.80;99.90;;;;;;5039698;28;20025;-43
2023/10/24 05:30:32;;;;;;;4.18;3.78;;;12.80;99.90;;;;;;5039878;28;20044;-43
2023/10/24 05:32:58;;;;;;;4.47;3.75;;;12.80;99.90;;;;;;5040084;28;20102;-44
2023/10/24 05:35:24;;;;;;;5.03;4.45;;;12.80;99.90;;;;;;5038369;28;20060;-42
2023/10/24 05:37:52;;;;;;;5.57;4.40;;;12.80;99.90;;;;;;5039244;28;20048;-42
2023/10/24 05:40:18;;;;;;;4.97;4.03;;;12.80;99.90;;;;;;5038833;28;20068;-43
2023/10/24 05:42:44;;;;;;;4.85;4.35;;;12.80;99.90;;;;;;5039899;28;20851;-43
2023/10/24 05:45:10;;;;;;;8.23;5.38;;;12.80;99.90;;;;;;5038537;28;20539;-43
2023/10/24 05:47:35;;;;;;;6.45;4.95;;;12.80;99.90;;;;;;5039770;28;20029;-43
2023/10/24 05:50:01;;;;;;;5.20;4.68;;;12.80;99.90;;;;;;5042253;28;20468;-43
2023/10/24 05:52:27;;;;;;;4.45;4.05;;;12.80;99.90;;;;;;5043604;28;20017;-43
2023/10/24 05:54:52;;;;;;;5.35;4.85;;;12.80;99.90;;;;;;5043532;28;20816;-43
2023/10/24 05:57:18;;;;;;;4.45;4.05;;;12.80;99.90;;;;;;5042466;28;20467;-43
2023/10/24 05:59:44;;;;;;;5.35;4.68;;;12.80;99.90;;;;;;5042806;28;20112;-43
2023/10/24 06:02:09;;;;;;;4.85;4.32;;;12.80;99.90;;;;;;5041942;28;20130;-42
2023/10/24 06:04:35;;;;;;;4.82;4.32;;;12.80;99.90;;;;;;5042123;28;20074;-43
2023/10/24 06:07:01;;;;;;;5.95;4.88;;;12.80;99.90;;;;;;5042922;28;20029;-44
2023/10/24 06:09:27;;;;;;;5.30;4.80;;;12.70;99.90;;;;;;5042306;28;20056;-43
2023/10/24 06:11:52;;;;;;;4.82;4.32;;;12.70;99.90;;;;;;5042744;28;20637;-43
2023/10/24 06:14:18;;;;;;;5.32;4.78;;;12.70;99.90;;;;;;5041936;28;20633;-42
2023/10/24 06:16:43;;;;;;;6.28;5.68;;;12.80;99.90;;;;;;5042587;28;20050;-42
2023/10/24 06:19:09;;;;;;;5.63;5.07;;;12.80;99.90;;;;;;5041305;28;20484;-43
2023/10/24 06:21:34;;;;;;;5.30;4.80;;;12.80;99.90;;;;;;5042867;28;20392;-42
2023/10/24 06:24:00;;;;;;;5.53;5.03;;;12.80;99.90;;;;;;5042463;28;20459;-43
2023/10/24 06:26:26;;;;;;;4.57;4.18;;;12.80;99.90;;;;;;5042342;28;20021;-44
2023/10/24 06:28:52;;;;;;;5.30;4.68;;;12.80;99.90;;;;;;5042339;28;20435;-44
2023/10/24 06:31:17;;;;;;;4.75;4.35;;;12.80;99.90;;;;;;5041779;28;20047;-44
2023/10/24 06:33:43;;;;;;;4.53;4.13;;;12.80;99.90;;;;;;5041103;28;20747;-44
2023/10/24 06:36:09;;;;;;;6.03;4.28;;;12.80;99.90;;;;;;5041999;28;20492;-42
2023/10/24 06:38:37;;;;;;;5.30;4.80;;;12.80;99.90;;;;;;5042179;28;20071;-43
2023/10/24 06:41:07;;;;;;;5.38;4.90;;;12.80;99.90;;;;;;5041812;28;20037;-42
2023/10/24 06:43:33;;;;;;;5.30;4.80;;;12.80;99.90;;;;;;5042315;28;20427;-42
2023/10/24 06:45:58;;;;;;;4.47;4.07;;;12.70;99.90;;;;;;5041947;28;20040;-44
2023/10/24 06:48:24;;;;;;;5.32;4.60;;;12.80;99.90;;;;;;5041479;28;20048;-43
2023/10/24 06:50:49;;;;;;;4.50;4.10;;;12.80;99.90;;;;;;5041387;28;20063;-42
2023/10/24 06:53:15;;;;;;;5.00;4.18;;;12.80;99.90;;;;;;5042087;28;20048;-42
2023/10/24 06:55:40;;;;;;;4.35;4.00;;;12.80;99.90;;;;;;5041191;28;20021;-43
2023/10/24 06:58:06;;;;;;;4.00;3.70;;;12.80;99.90;;;;;;5041755;28;20033;-43
2023/10/24 07:00:32;;;;;;;4.45;4.05;;;12.80;99.90;;;;;;5041307;28;20033;-43
2023/10/24 07:02:58;;;;;;;4.20;3.80;;;12.80;99.90;;;;;;5041449;28;20036;-43
2023/10/24 07:05:24;;;;;;;4.18;3.80;;;12.80;99.90;;;;;;5041501;28;20593;-42
2023/10/24 07:07:50;;;;;;;3.58;3.28;;;12.80;99.90;;;;;;5041123;28;20562;-43
2023/10/24 07:10:15;;;;;;;3.38;3.08;;;12.80;99.90;;;;;;5041303;28;20056;-43
2023/10/24 07:12:41;;;;;;;3.08;2.78;;;12.80;99.90;;;;;;5042246;28;20376;-43
2023/10/24 07:15:08;;;;;;;2.67;2.47;;;12.80;99.90;;;;;;5041111;28;20127;-43
2023/10/24 07:17:34;;;;;;;2.65;2.45;;;12.80;99.90;;;;;;5042188;28;20051;-43
2023/10/24 07:20:00;;;;;;;3.05;2.78;;;12.80;99.90;;;;;;5042215;28;20034;-43
2023/10/24 07:22:26;;;;;;;3.35;2.97;;;12.90;99.90;;;;;;5041750;28;20037;-43
2023/10/24 07:24:52;;;;;;;3.03;2.72;;;12.80;99.90;;;;;;5041081;28;20022;-43
2023/10/24 07:27:18;;;;;;;3.78;3.03;;;12.80;99.90;;;;;;5040248;28;20025;-43
2023/10/24 07:29:43;;;;;;;3.47;3.17;;;12.80;99.90;;;;;;5041631;28;20058;-42
2023/10/24 07:32:09;;;;;;;3.90;3.35;;;12.90;99.90;;;;;;5040728;28;20163;-43
2023/10/24 07:34:34;;;;;;;3.78;3.47;;;12.90;99.90;;;;;;5041805;28;20048;-44
2023/10/24 07:37:01;;;;;;;3.78;3.47;;;12.90;99.90;;;;;;5040543;28;20021;-43
2023/10/24 07:39:26;;;;;;;3.20;2.90;;;12.90;99.90;;;;;;5042198;28;20145;-43
2023/10/24 07:41:52;;;;;;;2.60;2.40;;;12.90;99.90;;;;;;5041227;28;20464;-43
2023/10/24 07:44:18;;;;;;;2.95;2.65;;;12.90;99.90;;;;;;5040204;28;20033;-43
2023/10/24 07:46:43;;;;;;;3.25;2.95;;;12.90;99.90;;;;;;5041568;28;20017;-43
2023/10/24 07:49:10;;;;;;;3.90;3.13;;;12.90;99.90;;;;;;5040782;28;20760;-43
2023/10/24 07:51:35;;;;;;;3.30;3.00;;;12.90;99.90;;;;;;5040051;28;20029;-42
2023/10/24 07:54:01;;;;;;;3.30;2.97;;;12.90;99.90;;;;;;5041254;28;20021;-43
2023/10/24 07:56:27;;;;;;;4.05;3.42;;;12.90;99.90;;;;;;5041438;28;20495;-43
2023/10/24 07:58:52;;;;;;;4.13;3.47;;;12.90;99.90;;;;;;5029624;28;20718;-43
2023/10/24 08:01:18;;;;;;;3.50;3.20;;;12.90;99.90;;;;;;5040899;28;20065;-43
2023/10/24 08:03:44;;;;;;;3.35;3.05;;;12.90;99.90;;;;;;5040600;28;20743;-43
2023/10/24 08:06:10;;;;;;;3.70;3.35;;;12.90;99.90;;;;;;5040275;28;20484;-42
2023/10/24 08:08:36;;;;;;;3.63;3.33;;;12.90;99.90;;;;;;5041066;28;20020;-43
2023/10/24 08:11:02;;;;;;;3.88;3.47;;;12.90;99.90;;;;;;5039005;28;20028;-43
2023/10/24 08:13:28;;;;;;;4.00;3.60;;;12.90;99.90;;;;;;5040429;28;20432;-42
2023/10/24 08:15:58;;;;;;;3.55;3.25;;;12.90;99.90;;;;;;5041477;28;20168;-43
2023/10/24 08:18:24;;;;;;;3.72;3.42;;;12.90;99.90;;;;;;5040128;28;20036;-45
2023/10/24 08:20:50;;;;;;;4.90;4.18;;;13.00;99.90;;;;;;5040559;28;20076;-43
2023/10/24 08:23:15;;;;;;;4.40;4.00;;;13.00;99.90;;;;;;5040301;28;20113;-43
2023/10/24 08:25:41;;;;;;;4.43;4.03;;;13.00;99.90;;;;;;5040175;28;20130;-43
2023/10/24 08:28:06;;;;;;;4.00;3.60;;;13.00;99.90;;;;;;5039936;28;20025;-43
2023/10/24 08:30:32;;;;;;;4.05;3.65;;;13.00;99.90;;;;;;5041519;28;20550;-43
2023/10/24 08:32:58;;;;;;;4.55;3.80;;;13.00;99.90;;;;;;5039907;28;20041;-43
2023/10/24 08:35:24;;;;;;;3.35;3.05;;;13.10;99.90;;;;;;5038872;28;20025;-43
2023/10/24 08:37:49;;;;;;;3.80;3.50;;;13.10;99.90;;;;;;5041300;28;20039;-43
2023/10/24 08:40:15;;;;;;;4.80;3.95;;;13.20;99.90;;;;;;5039161;28;20083;-43
2023/10/24 08:42:41;;;;;;;3.83;3.53;;;13.30;99.90;;;;;;5040302;28;20157;-43
2023/10/24 08:45:08;;;;;;;4.68;4.20;;;13.40;99.90;;;;;;5040183;28;20029;-42
2023/10/24 08:47:35;;;;;;;5.32;3.72;;;13.40;99.90;;;;;;5040097;28;20025;-43
2023/10/24 08:50:02;;;;;;;4.38;3.97;;;13.50;99.90;;;;;;5039289;28;20025;-43
2023/10/24 08:52:31;;;;;;;5.05;4.43;;;13.60;99.90;;;;;;5040607;28;20097;-44
2023/10/24 08:55:04;;;;;;;4.88;4.00;;;13.60;99.90;;;;;;5039421;28;20492;-44
2023/10/24 08:57:34;;;;;;;4.75;3.95;;;13.70;99.90;;;;;;5040386;28;20021;-43
2023/10/24 09:00:01;;;;;;;4.72;4.32;;;13.80;99.90;;;;;;5038895;28;20793;-43
2023/10/24 09:02:27;;;;;;;4.70;4.25;;;13.80;99.90;;;;;;5040545;28;20803;-43
2023/10/24 09:04:56;;;;;;;6.72;6.03;;;13.90;99.90;;;;;;5040130;28;20029;-43
2023/10/24 09:07:22;;;;;;;6.07;5.47;;;13.90;99.90;;;;;;5040073;28;20025;-43
2023/10/24 09:09:47;;;;;;;5.00;4.50;;;13.90;99.90;;;;;;5041060;28;20044;-42
2023/10/24 09:12:15;;;;;;;4.32;3.92;;;14.00;99.90;;;;;;5040319;28;20021;-44
2023/10/24 09:14:45;;;;;;;4.97;4.18;;;14.00;99.90;;;;;;5039753;28;20057;-44
2023/10/24 09:17:14;;;;;;;4.47;3.83;;;14.10;99.90;;;;;;5040209;28;20057;-43
2023/10/24 09:19:40;;;;;;;4.55;4.03;;;14.20;99.90;;;;;;5040709;28;20037;-43
2023/10/24 09:22:06;;;;;;;4.22;3.83;;;14.20;99.90;;;;;;5039342;28;20056;-43
2023/10/24 09:24:32;;;;;;;4.93;4.22;;;14.20;99.90;;;;;;5043833;28;20745;-44
2023/10/24 09:26:59;;;;;;;4.80;4.22;;;14.20;99.90;;;;;;5043460;28;20025;-44
2023/10/24 09:29:27;;;;;;;4.32;3.85;;;14.20;99.90;;;;;;5042436;28;20523;-43
2023/10/24 09:31:53;;;;;;;4.07;3.67;;;14.20;99.90;;;;;;5043796;28;20052;-43
2023/10/24 09:34:19;;;;;;;4.47;4.07;;;14.10;99.90;;;;;;5043187;28;20136;-43
2023/10/24 09:36:46;;;;;;;4.30;3.90;;;14.10;99.90;;;;;;5043354;28;20017;-43
2023/10/24 09:39:13;;;;;;;4.80;4.22;;;14.00;99.90;;;;;;5043861;28;20029;-43
2023/10/24 09:41:43;;;;;;;4.95;4.22;;;14.10;99.90;;;;;;5043240;28;20053;-43
2023/10/24 09:44:09;;;;;;;7.50;4.82;;;14.10;99.90;;;;;;5042445;28;20033;-42
2023/10/24 09:46:36;;;;;;;4.57;4.18;;;14.10;99.90;;;;;;5043534;28;20028;-42
2023/10/24 09:49:03;;;;;;;5.75;4.50;;;14.10;99.90;;;;;;5043317;28;20036;-43
2023/10/24 09:51:31;;;;;;;5.05;4.38;;;14.20;99.90;;;;;;5042886;28;20589;-43
2023/10/24 09:53:58;;;;;;;4.97;4.53;;;14.20;99.90;;;;;;5043177;28;20045;-45
2023/10/24 09:56:25;;;;;;;4.80;4.35;;;14.20;99.90;;;;;;5042260;28;20025;-43
2023/10/24 09:58:51;;;;;;;5.28;4.75;;;14.20;99.90;;;;;;5043202;28;20601;-43
2023/10/24 10:01:17;;;;;;;5.10;4.60;;;14.20;99.90;;;;;;5042978;28;20029;-43
2023/10/24 10:03:44;;;;;;;5.65;4.50;;;14.30;99.90;;;;;;5042956;28;20379;-43
2023/10/24 10:06:13;;;;;;;3.85;3.50;;;14.30;99.90;;;;;;5042388;28;20508;-43
2023/10/24 10:08:41;;;;;;;4.30;3.90;;;14.40;99.90;;;;;;5043398;28;20025;-43
2023/10/24 10:11:07;;;;;;;4.85;4.43;;;14.50;99.90;;;;;;5041366;28;20044;-43
2023/10/24 10:13:38;;;;;;;6.53;4.32;;;14.50;99.90;;;;;;5043019;28;20121;-44
2023/10/24 10:16:34;;;;;;;4.93;4.43;;;14.60;99.90;;;;;;5043057;28;20025;-44
2023/10/24 10:19:23;;;;;;;4.75;4.20;;;14.60;99.90;;;;;;5034804;28;20062;-45
2023/10/24 10:22:26;;;;;;;4.88;4.32;;;14.50;99.90;;;;;;5043216;28;20045;-44
2023/10/24 10:24:58;;;;;;;;;;;14.50;99.90;;;;;;5043619;28;20040;-43
2023/10/24 10:27:51;;;;;;;4.67;3.60;;;14.50;99.90;;;;;;5042606;28;19913;-43
2023/10/24 10:30:43;;;;;;;2.80;2.60;;;14.40;99.90;;;;;;5022393;28;20539;-43
2023/10/24 10:33:23;;;;;;;3.08;2.88;;;14.40;99.90;;;;;;5039923;28;20061;-43
2023/10/24 10:35:54;;;;;;;3.75;2.78;;;14.40;99.90;;;;;;5043243;28;20037;-43
2023/10/24 10:38:48;;;;;;;3.80;2.97;;;14.40;99.90;;;;;;5042518;28;20029;-43
2023/10/24 10:41:23;;;;;;;5.30;3.30;;;14.50;99.90;;;;;;5042461;28;20047;-43
2023/10/24 10:43:50;;;;;;;3.80;3.50;;;14.50;99.90;;;;;;5041655;28;20074;-43
2023/10/24 10:46:17;;;;;;;3.42;2.80;;;14.60;99.90;;;;;;5041966;28;20074;-43
2023/10/24 10:48:43;;;;;;;3.88;3.25;;;14.70;99.90;;;;;;5042024;28;20696;-43
2023/10/24 10:51:12;;;;;;;4.10;3.20;;;14.70;99.90;;;;;;5042153;28;20734;-43
2023/10/24 10:53:52;;;;;;;3.58;3.28;;;14.80;99.90;;;;;;5039274;28;20592;-43
2023/10/24 10:56:24;;;;;;;4.07;3.42;;;14.80;99.90;;;;;;5021928;28;20056;-43
2023/10/24 10:59:11;;;;;;;4.47;3.67;;;14.90;99.90;;;;;;5039011;28;20032;-43
2023/10/24 11:01:54;;;;;;;4.00;3.25;;;14.90;99.90;;;;;;5021511;28;20041;-43
2023/10/24 11:04:20;;;;;;;4.05;3.72;;;14.90;99.90;;;;;;5040941;28;20028;-43
2023/10/24 11:06:59;;;;;;;5.18;3.88;;;14.80;99.90;;;;;;5040766;28;20039;-44
2023/10/24 11:09:34;;;;;;;4.35;3.67;;;14.90;99.90;;;;;;5041012;28;20036;-44
2023/10/24 11:12:29;;;;;;;3.78;3.30;;;14.80;99.90;;;;;;5041835;28;20055;-44
2023/10/24 11:15:06;;;;;;;3.35;3.05;;;14.90;99.90;;;;;;5040348;28;20025;-44
2023/10/24 11:17:36;;;;;;;4.05;3.65;;;14.90;99.90;;;;;;5042186;28;20028;-43
2023/10/24 11:20:05;;;;;;;3.83;3.53;;;14.90;99.90;;;;;;5040260;28;20033;-44
2023/10/24 11:22:31;;;;;;;4.97;3.72;;;15.00;99.90;;;;;;5041069;28;20036;-44
2023/10/24 11:24:59;;;;;;;3.80;3.47;;;15.00;99.90;;;;;;5041801;28;20029;-44
2023/10/24 11:27:25;;;;;;;5.47;3.38;;;15.00;99.90;;;;;;5042490;28;20029;-43
2023/10/24 11:29:51;;;;;;;3.78;3.35;;;15.00;99.90;;;;;;5040775;28;20041;-43
2023/10/24 11:32:17;;;;;;;3.72;3.33;;;15.00;99.90;;;;;;5041457;28;20029;-43
2023/10/24 11:34:44;;;;;;;4.78;3.40;;;15.00;99.90;;;;;;5040954;28;20483;-43
2023/10/24 11:37:09;;;;;;;3.60;3.30;;;14.90;99.90;;;;;;5041650;28;20032;-43
2023/10/24 11:39:35;;;;;;;4.43;3.53;;;14.90;99.90;;;;;;5041532;28;20025;-43
2023/10/24 11:42:04;;;;;;;3.60;3.30;;;14.90;99.90;;;;;;5040575;28;20071;-44
2023/10/24 11:44:30;;;;;;;3.50;2.85;;;14.90;99.90;;;;;;5041834;28;20048;-43
2023/10/24 11:46:56;;;;;;;4.57;3.40;;;14.90;99.90;;;;;;5041128;28;20053;-43
2023/10/24 11:49:32;;;;;;;3.20;2.85;;;14.80;99.90;;;;;;5040944;28;20023;-43
2023/10/24 11:51:58;;;;;;;4.60;3.20;;;14.80;99.90;;;;;;5041522;28;20035;-43
2023/10/24 11:54:26;;;;;;;3.30;2.60;;;14.70;99.90;;;;;;5041141;28;20128;-43
2023/10/24 11:56:55;;;;;;;2.92;2.63;;;14.70;99.90;;;;;;5040776;28;20714;-43
2023/10/24 11:59:20;;;;;;;3.67;3.38;;;14.70;99.90;;;;;;5040385;28;20075;-43
2023/10/24 12:01:46;;;;;;;3.08;2.78;;;14.60;99.90;;;;;;5041296;28;20452;-42
2023/10/24 12:04:13;;;;;;;3.65;2.88;;;14.60;99.90;;;;;;5040480;28;20154;-43
2023/10/24 12:06:39;;;;;;;3.58;3.22;;;14.50;99.90;;;;;;5041501;28;20017;-43
2023/10/24 12:09:11;;;;;;;3.13;2.85;;;14.50;99.90;;;;;;5041453;28;20025;-43
2023/10/24 12:11:37;;;;;;;4.55;3.70;;;14.50;99.90;;;;;;5040635;28;20434;-43
2023/10/24 12:14:09;;;;;;;4.28;3.85;;;14.40;99.90;;;;;;5040495;28;20535;-44
2023/10/24 12:16:39;;;;;;;5.47;3.20;;;14.30;99.90;;;;;;5040832;28;20037;-44
2023/10/24 12:19:05;;;;;;;3.20;2.90;;;14.30;99.90;;;;;;5039921;28;20792;-42
2023/10/24 12:21:30;;;;;;;3.08;2.83;;;14.30;99.90;;;;;;5040626;28;20041;-43
2023/10/24 12:23:56;;;;;;;3.15;2.50;;;14.20;99.90;;;;;;5040434;28;20025;-43
2023/10/24 12:26:22;;;;;;;2.20;2.00;;;14.30;99.90;;;;;;5040093;28;20029;-43
2023/10/24 12:28:47;;;;;;;2.63;2.20;;;14.30;99.90;;;;;;5040617;28;20032;-43
2023/10/24 12:31:13;;;;;;;2.90;2.10;;;14.40;99.90;;;;;;5039116;28;20040;-44
2023/10/24 12:33:39;;;;;;;2.10;1.90;;;14.40;99.90;;;;;;5040304;28;20575;-44
2023/10/24 12:36:06;;;;;;;1.83;1.70;;;14.40;99.90;;;;;;5040243;28;20059;-43
2023/10/24 12:38:34;;;;;;;2.20;1.63;;;14.40;99.90;;;;;;5040658;28;20032;-44
2023/10/24 12:41:00;;;;;;;2.40;2.20;;;14.40;99.90;;;;;;5040026;28;20040;-43
2023/10/24 12:43:25;;;;;;;2.72;2.40;;;14.40;99.90;;;;;;5040670;28;20025;-42
2023/10/24 12:45:51;;;;;;;2.50;2.30;;;14.30;99.90;;;;;;5039964;28;20036;-44
2023/10/24 12:48:17;;;;;;;2.30;2.10;;;14.30;99.90;;;;;;5040406;28;20040;-43